sensor_id;sensor_type;location;lat;lon;timestamp;temperature;humidity
51029;DHT22;37054;52.054;8.600;2022-08-03T00:02:05;25.10;45.00
51029;DHT22;37054;52.054;8.600;2022-08-03T00:04:30;25.00;45.10
51029;DHT22;37054;52.054;8.600;2022-08-03T00:06:56;24.90;45.20
51029;DHT22;37054;52.054;8.600;2022-08-03T00:09:22;24.80;45.20
51029;DHT22;37054;52.054;8.600;2022-08-03T00:11:47;24.90;45.40
51029;DHT22;37054;52.054;8.600;2022-08-03T00:14:13;24.80;45.40
51029;DHT22;37054;52.054;8.600;2022-08-03T00:16:38;24.80;45.40
51029;DHT22;37054;52.054;8.600;2022-08-03T00:19:04;24.80;45.50
51029;DHT22;37054;52.054;8.600;2022-08-03T00:21:29;24.80;45.60
51029;DHT22;37054;52.054;8.600;2022-08-03T00:23:55;24.80;45.60
51029;DHT22;37054;52.054;8.600;2022-08-03T00:26:20;24.90;45.60
51029;DHT22;37054;52.054;8.600;2022-08-03T00:28:46;24.90;45.60
51029;DHT22;37054;52.054;8.600;2022-08-03T00:31:12;25.00;45.70
51029;DHT22;37054;52.054;8.600;2022-08-03T00:33:38;25.00;45.80
51029;DHT22;37054;52.054;8.600;2022-08-03T00:36:03;25.10;45.70
51029;DHT22;37054;52.054;8.600;2022-08-03T00:38:29;25.20;45.70
51029;DHT22;37054;52.054;8.600;2022-08-03T00:40:54;25.20;45.70
51029;DHT22;37054;52.054;8.600;2022-08-03T00:43:23;25.20;45.60
51029;DHT22;37054;52.054;8.600;2022-08-03T00:45:49;25.10;45.60
51029;DHT22;37054;52.054;8.600;2022-08-03T00:48:14;25.00;45.60
51029;DHT22;37054;52.054;8.600;2022-08-03T00:50:43;25.00;45.80
51029;DHT22;37054;52.054;8.600;2022-08-03T00:53:09;24.90;45.90
51029;DHT22;37054;52.054;8.600;2022-08-03T00:55:36;24.90;46.00
51029;DHT22;37054;52.054;8.600;2022-08-03T00:58:02;24.80;46.00
51029;DHT22;37054;52.054;8.600;2022-08-03T01:00:31;24.80;46.10
51029;DHT22;37054;52.054;8.600;2022-08-03T01:02:56;24.80;46.10
51029;DHT22;37054;52.054;8.600;2022-08-03T01:05:22;24.70;46.10
51029;DHT22;37054;52.054;8.600;2022-08-03T01:07:59;24.70;46.30
51029;DHT22;37054;52.054;8.600;2022-08-03T01:12:56;24.60;46.50
51029;DHT22;37054;52.054;8.600;2022-08-03T01:15:30;24.70;46.50
51029;DHT22;37054;52.054;8.600;2022-08-03T01:17:59;24.60;46.60
51029;DHT22;37054;52.054;8.600;2022-08-03T01:20:30;24.60;46.60
51029;DHT22;37054;52.054;8.600;2022-08-03T01:23:10;24.70;46.60
51029;DHT22;37054;52.054;8.600;2022-08-03T01:31:17;24.70;46.60
51029;DHT22;37054;52.054;8.600;2022-08-03T01:33:46;24.60;46.70
51029;DHT22;37054;52.054;8.600;2022-08-03T01:36:18;24.50;46.80
51029;DHT22;37054;52.054;8.600;2022-08-03T01:38:48;24.60;46.80
51029;DHT22;37054;52.054;8.600;2022-08-03T01:41:19;24.70;46.80
51029;DHT22;37054;52.054;8.600;2022-08-03T01:43:46;24.60;46.80
51029;DHT22;37054;52.054;8.600;2022-08-03T01:46:14;24.60;46.90
51029;DHT22;37054;52.054;8.600;2022-08-03T01:48:41;24.50;46.90
51029;DHT22;37054;52.054;8.600;2022-08-03T01:51:09;24.60;46.90
51029;DHT22;37054;52.054;8.600;2022-08-03T01:53:36;24.70;47.00
51029;DHT22;37054;52.054;8.600;2022-08-03T01:56:02;24.60;46.80
51029;DHT22;37054;52.054;8.600;2022-08-03T01:58:28;24.50;46.90
51029;DHT22;37054;52.054;8.600;2022-08-03T02:00:54;24.30;47.00
51029;DHT22;37054;52.054;8.600;2022-08-03T02:03:23;24.20;47.20
51029;DHT22;37054;52.054;8.600;2022-08-03T02:05:49;24.20;47.30
51029;DHT22;37054;52.054;8.600;2022-08-03T02:08:16;24.20;47.30
51029;DHT22;37054;52.054;8.600;2022-08-03T02:10:42;24.20;47.30
51029;DHT22;37054;52.054;8.600;2022-08-03T02:13:10;24.10;47.50
51029;DHT22;37054;52.054;8.600;2022-08-03T02:15:37;24.00;47.60
51029;DHT22;37054;52.054;8.600;2022-08-03T02:18:04;24.00;47.80
51029;DHT22;37054;52.054;8.600;2022-08-03T02:20:30;24.00;47.80
51029;DHT22;37054;52.054;8.600;2022-08-03T02:38:38;23.90;48.00
51029;DHT22;37054;52.054;8.600;2022-08-03T02:41:19;23.90;48.20
51029;DHT22;37054;52.054;8.600;2022-08-03T02:47:06;23.90;48.10
51029;DHT22;37054;52.054;8.600;2022-08-03T03:04:35;24.00;48.40
51029;DHT22;37054;52.054;8.600;2022-08-03T03:10:21;24.20;48.30
51029;DHT22;37054;52.054;8.600;2022-08-03T03:12:51;24.20;48.50
51029;DHT22;37054;52.054;8.600;2022-08-03T03:15:20;24.10;48.40
51029;DHT22;37054;52.054;8.600;2022-08-03T03:17:47;24.10;48.40
51029;DHT22;37054;52.054;8.600;2022-08-03T03:20:13;24.00;48.40
51029;DHT22;37054;52.054;8.600;2022-08-03T03:22:47;24.00;48.40
51029;DHT22;37054;52.054;8.600;2022-08-03T03:25:18;24.00;48.50
51029;DHT22;37054;52.054;8.600;2022-08-03T03:27:44;23.80;48.60
51029;DHT22;37054;52.054;8.600;2022-08-03T03:30:11;23.70;48.70
51029;DHT22;37054;52.054;8.600;2022-08-03T03:32:37;23.60;48.80
51029;DHT22;37054;52.054;8.600;2022-08-03T03:35:04;23.60;48.90
51029;DHT22;37054;52.054;8.600;2022-08-03T03:37:29;23.50;48.90
51029;DHT22;37054;52.054;8.600;2022-08-03T03:39:55;23.60;49.00
51029;DHT22;37054;52.054;8.600;2022-08-03T03:42:20;23.70;49.00
51029;DHT22;37054;52.054;8.600;2022-08-03T03:44:46;23.70;48.90
51029;DHT22;37054;52.054;8.600;2022-08-03T03:47:12;23.70;48.90
51029;DHT22;37054;52.054;8.600;2022-08-03T03:49:38;23.70;49.00
51029;DHT22;37054;52.054;8.600;2022-08-03T03:52:03;23.70;49.10
51029;DHT22;37054;52.054;8.600;2022-08-03T03:54:39;23.80;49.10
51029;DHT22;37054;52.054;8.600;2022-08-03T03:57:04;23.80;49.10
51029;DHT22;37054;52.054;8.600;2022-08-03T03:59:30;23.80;49.20
51029;DHT22;37054;52.054;8.600;2022-08-03T04:01:55;23.80;49.30
51029;DHT22;37054;52.054;8.600;2022-08-03T04:04:21;23.80;49.50
51029;DHT22;37054;52.054;8.600;2022-08-03T04:07:05;23.90;49.60
51029;DHT22;37054;52.054;8.600;2022-08-03T04:09:49;23.90;50.00
51029;DHT22;37054;52.054;8.600;2022-08-03T04:15:36;24.00;50.50
51029;DHT22;37054;52.054;8.600;2022-08-03T04:18:01;24.10;50.80
51029;DHT22;37054;52.054;8.600;2022-08-03T04:20:28;24.20;50.80
51029;DHT22;37054;52.054;8.600;2022-08-03T04:22:54;24.40;50.90
51029;DHT22;37054;52.054;8.600;2022-08-03T04:25:21;24.60;51.00
51029;DHT22;37054;52.054;8.600;2022-08-03T04:27:49;24.80;51.00
51029;DHT22;37054;52.054;8.600;2022-08-03T04:30:16;25.10;51.00
51029;DHT22;37054;52.054;8.600;2022-08-03T04:32:43;25.30;50.70
51029;DHT22;37054;52.054;8.600;2022-08-03T04:35:14;25.50;50.50
51029;DHT22;37054;52.054;8.600;2022-08-03T04:37:41;25.80;50.50
51029;DHT22;37054;52.054;8.600;2022-08-03T04:40:09;26.10;50.50
51029;DHT22;37054;52.054;8.600;2022-08-03T04:42:37;26.40;50.40
51029;DHT22;37054;52.054;8.600;2022-08-03T04:45:03;26.80;50.10
51029;DHT22;37054;52.054;8.600;2022-08-03T04:47:31;27.10;49.70
51029;DHT22;37054;52.054;8.600;2022-08-03T04:49:57;27.40;49.00
51029;DHT22;37054;52.054;8.600;2022-08-03T04:52:27;27.70;48.40
51029;DHT22;37054;52.054;8.600;2022-08-03T04:54:58;27.90;47.80
51029;DHT22;37054;52.054;8.600;2022-08-03T04:57:23;28.20;47.30
51029;DHT22;37054;52.054;8.600;2022-08-03T04:59:49;28.40;47.20
51029;DHT22;37054;52.054;8.600;2022-08-03T05:02:21;28.70;46.80
51029;DHT22;37054;52.054;8.600;2022-08-03T05:05:10;29.10;46.30
51029;DHT22;37054;52.054;8.600;2022-08-03T05:07:36;29.50;46.10
51029;DHT22;37054;52.054;8.600;2022-08-03T05:10:02;29.90;45.70
51029;DHT22;37054;52.054;8.600;2022-08-03T05:12:28;30.30;45.30
51029;DHT22;37054;52.054;8.600;2022-08-03T05:14:54;30.80;44.50
51029;DHT22;37054;52.054;8.600;2022-08-03T05:17:20;31.30;43.70
51029;DHT22;37054;52.054;8.600;2022-08-03T05:19:48;31.80;43.20
51029;DHT22;37054;52.054;8.600;2022-08-03T05:22:14;32.20;42.60
51029;DHT22;37054;52.054;8.600;2022-08-03T05:24:40;32.70;41.70
51029;DHT22;37054;52.054;8.600;2022-08-03T05:27:06;33.10;41.20
51029;DHT22;37054;52.054;8.600;2022-08-03T05:29:32;33.50;40.30
51029;DHT22;37054;52.054;8.600;2022-08-03T05:31:57;33.90;39.70
51029;DHT22;37054;52.054;8.600;2022-08-03T05:34:23;34.40;39.20
51029;DHT22;37054;52.054;8.600;2022-08-03T05:36:48;34.80;38.20
51029;DHT22;37054;52.054;8.600;2022-08-03T05:39:14;35.10;37.40
51029;DHT22;37054;52.054;8.600;2022-08-03T05:41:39;35.40;36.80
51029;DHT22;37054;52.054;8.600;2022-08-03T05:44:05;35.80;36.00
51029;DHT22;37054;52.054;8.600;2022-08-03T05:46:30;36.20;35.50
51029;DHT22;37054;52.054;8.600;2022-08-03T05:48:56;36.50;35.30
51029;DHT22;37054;52.054;8.600;2022-08-03T05:51:21;36.90;34.40
51029;DHT22;37054;52.054;8.600;2022-08-03T05:53:46;37.20;33.80
51029;DHT22;37054;52.054;8.600;2022-08-03T05:56:13;37.50;33.60
51029;DHT22;37054;52.054;8.600;2022-08-03T05:58:42;37.80;33.00
51029;DHT22;37054;52.054;8.600;2022-08-03T06:01:08;37.90;32.50
51029;DHT22;37054;52.054;8.600;2022-08-03T06:03:43;37.90;31.70
51029;DHT22;37054;52.054;8.600;2022-08-03T06:06:08;37.80;31.60
51029;DHT22;37054;52.054;8.600;2022-08-03T06:08:39;37.90;31.80
51029;DHT22;37054;52.054;8.600;2022-08-03T06:11:04;38.20;31.60
51029;DHT22;37054;52.054;8.600;2022-08-03T06:13:30;38.40;31.50
51029;DHT22;37054;52.054;8.600;2022-08-03T06:15:56;38.70;31.30
51029;DHT22;37054;52.054;8.600;2022-08-03T06:18:22;39.10;31.10
51029;DHT22;37054;52.054;8.600;2022-08-03T06:20:50;39.50;30.90
51029;DHT22;37054;52.054;8.600;2022-08-03T06:23:16;39.90;30.20
51029;DHT22;37054;52.054;8.600;2022-08-03T06:28:34;40.30;29.40
51029;DHT22;37054;52.054;8.600;2022-08-03T06:30:59;40.40;29.30
51029;DHT22;37054;52.054;8.600;2022-08-03T06:33:25;40.60;29.20
51029;DHT22;37054;52.054;8.600;2022-08-03T06:35:50;40.90;28.90
51029;DHT22;37054;52.054;8.600;2022-08-03T06:38:16;41.20;28.60
51029;DHT22;37054;52.054;8.600;2022-08-03T06:40:41;41.40;28.20
51029;DHT22;37054;52.054;8.600;2022-08-03T06:43:07;41.60;28.00
51029;DHT22;37054;52.054;8.600;2022-08-03T06:45:33;41.80;27.70
51029;DHT22;37054;52.054;8.600;2022-08-03T06:48:05;42.00;27.60
51029;DHT22;37054;52.054;8.600;2022-08-03T06:50:32;42.20;27.30
51029;DHT22;37054;52.054;8.600;2022-08-03T06:52:58;42.50;27.10
51029;DHT22;37054;52.054;8.600;2022-08-03T06:55:23;42.80;26.70
51029;DHT22;37054;52.054;8.600;2022-08-03T06:57:49;43.00;25.80
51029;DHT22;37054;52.054;8.600;2022-08-03T07:00:14;43.20;25.70
51029;DHT22;37054;52.054;8.600;2022-08-03T07:02:40;43.30;25.40
51029;DHT22;37054;52.054;8.600;2022-08-03T07:05:06;43.40;25.20
51029;DHT22;37054;52.054;8.600;2022-08-03T07:07:32;43.40;24.90
51029;DHT22;37054;52.054;8.600;2022-08-03T07:09:57;43.30;24.90
51029;DHT22;37054;52.054;8.600;2022-08-03T07:12:37;43.30;24.60
51029;DHT22;37054;52.054;8.600;2022-08-03T07:15:03;43.30;24.40
51029;DHT22;37054;52.054;8.600;2022-08-03T07:17:30;43.30;24.60
51029;DHT22;37054;52.054;8.600;2022-08-03T07:19:56;43.60;24.60
51029;DHT22;37054;52.054;8.600;2022-08-03T07:22:22;44.00;24.60
51029;DHT22;37054;52.054;8.600;2022-08-03T07:24:47;44.30;24.20
51029;DHT22;37054;52.054;8.600;2022-08-03T07:27:14;44.70;24.10
51029;DHT22;37054;52.054;8.600;2022-08-03T07:29:40;45.00;23.90
51029;DHT22;37054;52.054;8.600;2022-08-03T07:32:05;45.50;23.70
51029;DHT22;37054;52.054;8.600;2022-08-03T07:34:31;45.90;23.30
51029;DHT22;37054;52.054;8.600;2022-08-03T07:36:56;46.30;22.80
51029;DHT22;37054;52.054;8.600;2022-08-03T07:41:47;47.00;21.80
51029;DHT22;37054;52.054;8.600;2022-08-03T07:44:16;47.00;21.30
51029;DHT22;37054;52.054;8.600;2022-08-03T07:46:45;47.10;21.40
51029;DHT22;37054;52.054;8.600;2022-08-03T07:49:10;47.30;21.50
51029;DHT22;37054;52.054;8.600;2022-08-03T07:51:36;47.60;21.40
51029;DHT22;37054;52.054;8.600;2022-08-03T07:54:04;47.80;21.00
51029;DHT22;37054;52.054;8.600;2022-08-03T07:56:30;48.10;20.60
51029;DHT22;37054;52.054;8.600;2022-08-03T07:58:56;48.30;20.10
51029;DHT22;37054;52.054;8.600;2022-08-03T08:01:21;48.60;19.80
51029;DHT22;37054;52.054;8.600;2022-08-03T08:03:47;48.90;19.30
51029;DHT22;37054;52.054;8.600;2022-08-03T08:06:13;49.00;19.10
51029;DHT22;37054;52.054;8.600;2022-08-03T08:08:39;49.10;18.80
51029;DHT22;37054;52.054;8.600;2022-08-03T08:11:06;49.20;18.80
51029;DHT22;37054;52.054;8.600;2022-08-03T08:13:32;49.30;18.50
51029;DHT22;37054;52.054;8.600;2022-08-03T08:15:59;49.30;18.50
51029;DHT22;37054;52.054;8.600;2022-08-03T08:18:25;49.50;18.30
51029;DHT22;37054;52.054;8.600;2022-08-03T08:20:54;49.60;17.90
51029;DHT22;37054;52.054;8.600;2022-08-03T08:23:19;49.40;17.40
51029;DHT22;37054;52.054;8.600;2022-08-03T08:25:48;49.30;17.40
51029;DHT22;37054;52.054;8.600;2022-08-03T08:28:18;49.10;17.40
51029;DHT22;37054;52.054;8.600;2022-08-03T08:30:44;49.00;17.50
51029;DHT22;37054;52.054;8.600;2022-08-03T08:33:10;48.90;17.50
51029;DHT22;37054;52.054;8.600;2022-08-03T08:35:35;49.00;17.60
51029;DHT22;37054;52.054;8.600;2022-08-03T08:38:01;49.00;17.70
51029;DHT22;37054;52.054;8.600;2022-08-03T08:40:27;49.20;17.90
51029;DHT22;37054;52.054;8.600;2022-08-03T08:42:52;49.30;18.10
51029;DHT22;37054;52.054;8.600;2022-08-03T08:47:54;49.60;17.40
51029;DHT22;37054;52.054;8.600;2022-08-03T08:53:52;49.60;17.20
51029;DHT22;37054;52.054;8.600;2022-08-03T09:11:02;50.70;17.20
51029;DHT22;37054;52.054;8.600;2022-08-03T09:13:30;50.80;17.00
51029;DHT22;37054;52.054;8.600;2022-08-03T09:18:37;51.10;16.80
51029;DHT22;37054;52.054;8.600;2022-08-03T09:21:13;51.20;16.70
51029;DHT22;37054;52.054;8.600;2022-08-03T09:26:12;51.10;16.40
51029;DHT22;37054;52.054;8.600;2022-08-03T09:28:43;51.20;16.60
51029;DHT22;37054;52.054;8.600;2022-08-03T09:31:11;51.30;16.60
51029;DHT22;37054;52.054;8.600;2022-08-03T09:33:45;51.50;16.60
51029;DHT22;37054;52.054;8.600;2022-08-03T09:36:32;51.70;16.60
51029;DHT22;37054;52.054;8.600;2022-08-03T09:39:03;51.80;16.30
51029;DHT22;37054;52.054;8.600;2022-08-03T09:41:30;51.90;16.20
51029;DHT22;37054;52.054;8.600;2022-08-03T09:43:59;51.90;15.90
51029;DHT22;37054;52.054;8.600;2022-08-03T09:46:24;51.80;15.90
51029;DHT22;37054;52.054;8.600;2022-08-03T09:48:53;51.50;15.80
51029;DHT22;37054;52.054;8.600;2022-08-03T09:51:35;51.30;16.10
51029;DHT22;37054;52.054;8.600;2022-08-03T09:54:00;51.30;16.40
51029;DHT22;37054;52.054;8.600;2022-08-03T09:56:44;51.10;16.10
51029;DHT22;37054;52.054;8.600;2022-08-03T09:59:22;51.10;16.40
51029;DHT22;37054;52.054;8.600;2022-08-03T10:01:48;51.20;16.60
51029;DHT22;37054;52.054;8.600;2022-08-03T10:04:14;51.30;16.30
51029;DHT22;37054;52.054;8.600;2022-08-03T10:07:23;51.10;16.10
51029;DHT22;37054;52.054;8.600;2022-08-03T10:09:30;51.10;16.40
51029;DHT22;37054;52.054;8.600;2022-08-03T10:11:55;51.30;16.50
51029;DHT22;37054;52.054;8.600;2022-08-03T10:14:23;51.60;16.60
51029;DHT22;37054;52.054;8.600;2022-08-03T10:16:54;51.90;16.50
51029;DHT22;37054;52.054;8.600;2022-08-03T10:19:20;52.20;16.60
51029;DHT22;37054;52.054;8.600;2022-08-03T10:21:52;52.40;16.40
51029;DHT22;37054;52.054;8.600;2022-08-03T10:24:25;52.70;16.20
51029;DHT22;37054;52.054;8.600;2022-08-03T10:26:52;52.70;15.60
51029;DHT22;37054;52.054;8.600;2022-08-03T10:29:21;52.60;15.60
51029;DHT22;37054;52.054;8.600;2022-08-03T10:31:49;52.60;15.60
51029;DHT22;37054;52.054;8.600;2022-08-03T10:34:26;52.50;15.50
51029;DHT22;37054;52.054;8.600;2022-08-03T10:36:55;52.50;15.30
51029;DHT22;37054;52.054;8.600;2022-08-03T10:39:25;52.30;15.30
51029;DHT22;37054;52.054;8.600;2022-08-03T10:41:55;52.00;15.20
51029;DHT22;37054;52.054;8.600;2022-08-03T10:44:23;52.10;15.40
51029;DHT22;37054;52.054;8.600;2022-08-03T10:46:49;52.10;15.00
51029;DHT22;37054;52.054;8.600;2022-08-03T10:49:16;51.60;14.80
51029;DHT22;37054;52.054;8.600;2022-08-03T10:51:43;50.90;15.10
51029;DHT22;37054;52.054;8.600;2022-08-03T10:57:05;50.50;15.90
51029;DHT22;37054;52.054;8.600;2022-08-03T11:02:15;51.40;16.00
51029;DHT22;37054;52.054;8.600;2022-08-03T11:04:40;51.80;15.60
51029;DHT22;37054;52.054;8.600;2022-08-03T11:07:21;52.00;15.70
51029;DHT22;37054;52.054;8.600;2022-08-03T11:09:49;52.00;15.50
51029;DHT22;37054;52.054;8.600;2022-08-03T11:14:50;51.00;15.20
51029;DHT22;37054;52.054;8.600;2022-08-03T11:17:17;50.50;15.40
51029;DHT22;37054;52.054;8.600;2022-08-03T11:19:43;50.50;15.60
51029;DHT22;37054;52.054;8.600;2022-08-03T11:22:09;50.80;15.60
51029;DHT22;37054;52.054;8.600;2022-08-03T11:29:52;51.20;15.40
51029;DHT22;37054;52.054;8.600;2022-08-03T11:35:21;51.00;15.50
51029;DHT22;37054;52.054;8.600;2022-08-03T11:43:00;50.70;15.80
51029;DHT22;37054;52.054;8.600;2022-08-03T11:45:25;51.20;15.90
51029;DHT22;37054;52.054;8.600;2022-08-03T11:47:56;51.70;15.50
51029;DHT22;37054;52.054;8.600;2022-08-03T11:50:25;51.80;15.40
51029;DHT22;37054;52.054;8.600;2022-08-03T11:52:51;51.70;15.30
51029;DHT22;37054;52.054;8.600;2022-08-03T11:55:17;51.20;15.20
51029;DHT22;37054;52.054;8.600;2022-08-03T11:57:44;51.20;15.50
51029;DHT22;37054;52.054;8.600;2022-08-03T12:00:21;51.50;15.50
51029;DHT22;37054;52.054;8.600;2022-08-03T12:02:54;51.60;15.30
51029;DHT22;37054;52.054;8.600;2022-08-03T12:05:20;51.80;15.30
51029;DHT22;37054;52.054;8.600;2022-08-03T12:07:45;51.90;15.40
51029;DHT22;37054;52.054;8.600;2022-08-03T12:10:14;52.10;15.50
51029;DHT22;37054;52.054;8.600;2022-08-03T12:15:29;52.50;15.30
51029;DHT22;37054;52.054;8.600;2022-08-03T12:18:27;52.60;14.80
51029;DHT22;37054;52.054;8.600;2022-08-03T12:20:54;52.50;14.90
51029;DHT22;37054;52.054;8.600;2022-08-03T12:23:27;52.70;14.90
51029;DHT22;37054;52.054;8.600;2022-08-03T12:25:59;52.70;14.70
51029;DHT22;37054;52.054;8.600;2022-08-03T12:28:25;52.60;14.70
51029;DHT22;37054;52.054;8.600;2022-08-03T12:30:51;52.50;15.00
51029;DHT22;37054;52.054;8.600;2022-08-03T12:35:45;52.70;15.10
51029;DHT22;37054;52.054;8.600;2022-08-03T12:38:10;52.80;15.10
51029;DHT22;37054;52.054;8.600;2022-08-03T12:40:37;52.80;15.10
51029;DHT22;37054;52.054;8.600;2022-08-03T12:43:09;52.90;15.00
51029;DHT22;37054;52.054;8.600;2022-08-03T12:45:35;53.00;14.90
51029;DHT22;37054;52.054;8.600;2022-08-03T12:48:01;53.00;14.80
51029;DHT22;37054;52.054;8.600;2022-08-03T12:50:30;53.00;14.50
51029;DHT22;37054;52.054;8.600;2022-08-03T12:52:56;52.70;14.50
51029;DHT22;37054;52.054;8.600;2022-08-03T12:55:22;52.40;14.40
51029;DHT22;37054;52.054;8.600;2022-08-03T12:57:53;52.30;14.50
51029;DHT22;37054;52.054;8.600;2022-08-03T13:00:19;52.10;14.70
51029;DHT22;37054;52.054;8.600;2022-08-03T13:02:45;52.00;14.70
51029;DHT22;37054;52.054;8.600;2022-08-03T13:05:23;51.70;14.70
51029;DHT22;37054;52.054;8.600;2022-08-03T13:07:51;51.70;14.80
51029;DHT22;37054;52.054;8.600;2022-08-03T13:10:30;51.70;15.00
51029;DHT22;37054;52.054;8.600;2022-08-03T13:12:59;51.80;15.20
51029;DHT22;37054;52.054;8.600;2022-08-03T13:15:27;51.70;15.20
51029;DHT22;37054;52.054;8.600;2022-08-03T13:17:56;51.60;15.00
51029;DHT22;37054;52.054;8.600;2022-08-03T13:20:21;51.40;15.10
51029;DHT22;37054;52.054;8.600;2022-08-03T13:22:47;51.50;15.20
51029;DHT22;37054;52.054;8.600;2022-08-03T13:25:13;51.50;15.30
51029;DHT22;37054;52.054;8.600;2022-08-03T13:27:38;51.30;15.20
51029;DHT22;37054;52.054;8.600;2022-08-03T13:30:04;51.20;15.40
51029;DHT22;37054;52.054;8.600;2022-08-03T13:32:30;51.30;15.30
51029;DHT22;37054;52.054;8.600;2022-08-03T13:34:55;51.30;15.30
51029;DHT22;37054;52.054;8.600;2022-08-03T13:37:21;51.00;15.20
51029;DHT22;37054;52.054;8.600;2022-08-03T13:39:46;50.80;15.30
51029;DHT22;37054;52.054;8.600;2022-08-03T13:42:12;50.50;15.30
51029;DHT22;37054;52.054;8.600;2022-08-03T13:44:38;50.30;15.50
51029;DHT22;37054;52.054;8.600;2022-08-03T13:47:03;50.00;15.50
51029;DHT22;37054;52.054;8.600;2022-08-03T13:49:29;49.50;15.30
51029;DHT22;37054;52.054;8.600;2022-08-03T13:51:55;48.80;15.50
51029;DHT22;37054;52.054;8.600;2022-08-03T13:54:21;48.20;16.00
51029;DHT22;37054;52.054;8.600;2022-08-03T13:56:47;47.70;16.30
51029;DHT22;37054;52.054;8.600;2022-08-03T13:59:22;47.20;16.60
51029;DHT22;37054;52.054;8.600;2022-08-03T14:01:54;46.60;17.00
51029;DHT22;37054;52.054;8.600;2022-08-03T14:04:23;46.10;17.50
51029;DHT22;37054;52.054;8.600;2022-08-03T14:06:48;45.60;17.90
51029;DHT22;37054;52.054;8.600;2022-08-03T14:09:14;45.30;18.10
51029;DHT22;37054;52.054;8.600;2022-08-03T14:11:40;44.80;18.30
51029;DHT22;37054;52.054;8.600;2022-08-03T14:14:06;44.50;18.50
51029;DHT22;37054;52.054;8.600;2022-08-03T14:16:32;44.20;18.60
51029;DHT22;37054;52.054;8.600;2022-08-03T14:18:57;43.80;18.90
51029;DHT22;37054;52.054;8.600;2022-08-03T14:21:23;43.50;19.20
51029;DHT22;37054;52.054;8.600;2022-08-03T14:23:48;43.20;19.40
51029;DHT22;37054;52.054;8.600;2022-08-03T14:26:14;42.80;19.70
51029;DHT22;37054;52.054;8.600;2022-08-03T14:28:40;42.40;20.00
51029;DHT22;37054;52.054;8.600;2022-08-03T14:31:05;42.20;20.30
51029;DHT22;37054;52.054;8.600;2022-08-03T14:33:31;41.90;20.50
51029;DHT22;37054;52.054;8.600;2022-08-03T14:35:56;41.70;20.80
51029;DHT22;37054;52.054;8.600;2022-08-03T14:38:22;41.50;21.10
51029;DHT22;37054;52.054;8.600;2022-08-03T14:40:48;41.40;21.30
51029;DHT22;37054;52.054;8.600;2022-08-03T14:43:13;41.30;21.50
51029;DHT22;37054;52.054;8.600;2022-08-03T14:45:39;41.20;21.60
51029;DHT22;37054;52.054;8.600;2022-08-03T14:48:05;41.00;21.80
51029;DHT22;37054;52.054;8.600;2022-08-03T14:50:30;40.90;22.00
51029;DHT22;37054;52.054;8.600;2022-08-03T14:52:56;40.80;22.10
51029;DHT22;37054;52.054;8.600;2022-08-03T14:55:22;40.70;22.10
51029;DHT22;37054;52.054;8.600;2022-08-03T14:57:47;40.70;22.20
51029;DHT22;37054;52.054;8.600;2022-08-03T15:00:18;40.60;22.20
51029;DHT22;37054;52.054;8.600;2022-08-03T15:02:45;40.60;22.20
51029;DHT22;37054;52.054;8.600;2022-08-03T15:05:11;40.50;22.30
51029;DHT22;37054;52.054;8.600;2022-08-03T15:07:39;40.30;22.40
51029;DHT22;37054;52.054;8.600;2022-08-03T15:10:04;40.20;22.50
51029;DHT22;37054;52.054;8.600;2022-08-03T15:12:30;40.20;22.70
51029;DHT22;37054;52.054;8.600;2022-08-03T15:14:56;40.20;22.80
51029;DHT22;37054;52.054;8.600;2022-08-03T15:17:22;40.10;22.80
51029;DHT22;37054;52.054;8.600;2022-08-03T15:19:48;40.00;22.70
51029;DHT22;37054;52.054;8.600;2022-08-03T15:22:13;40.00;22.80
51029;DHT22;37054;52.054;8.600;2022-08-03T15:24:41;39.80;22.90
51029;DHT22;37054;52.054;8.600;2022-08-03T15:27:07;39.80;23.10
51029;DHT22;37054;52.054;8.600;2022-08-03T15:29:32;39.60;23.20
51029;DHT22;37054;52.054;8.600;2022-08-03T15:31:58;39.60;23.20
51029;DHT22;37054;52.054;8.600;2022-08-03T15:34:23;39.60;23.30
51029;DHT22;37054;52.054;8.600;2022-08-03T15:36:49;39.50;23.30
51029;DHT22;37054;52.054;8.600;2022-08-03T15:39:14;39.50;23.40
51029;DHT22;37054;52.054;8.600;2022-08-03T15:41:40;39.50;23.60
51029;DHT22;37054;52.054;8.600;2022-08-03T15:44:05;39.40;23.60
51029;DHT22;37054;52.054;8.600;2022-08-03T15:46:31;39.40;23.60
51029;DHT22;37054;52.054;8.600;2022-08-03T15:48:57;39.30;23.70
51029;DHT22;37054;52.054;8.600;2022-08-03T15:51:22;39.30;23.80
51029;DHT22;37054;52.054;8.600;2022-08-03T15:53:54;39.20;23.90
51029;DHT22;37054;52.054;8.600;2022-08-03T15:56:21;39.20;24.00
51029;DHT22;37054;52.054;8.600;2022-08-03T15:58:47;39.20;24.20
51029;DHT22;37054;52.054;8.600;2022-08-03T16:01:13;39.20;24.40
51029;DHT22;37054;52.054;8.600;2022-08-03T16:03:39;39.10;24.40
51029;DHT22;37054;52.054;8.600;2022-08-03T16:06:05;39.00;24.30
51029;DHT22;37054;52.054;8.600;2022-08-03T16:08:31;39.00;24.40
51029;DHT22;37054;52.054;8.600;2022-08-03T16:11:00;38.90;24.50
51029;DHT22;37054;52.054;8.600;2022-08-03T16:13:27;38.80;24.50
51029;DHT22;37054;52.054;8.600;2022-08-03T16:15:52;38.80;24.60
51029;DHT22;37054;52.054;8.600;2022-08-03T16:18:18;38.80;24.70
51029;DHT22;37054;52.054;8.600;2022-08-03T16:20:47;38.70;24.90
51029;DHT22;37054;52.054;8.600;2022-08-03T16:23:13;38.70;24.90
51029;DHT22;37054;52.054;8.600;2022-08-03T16:25:40;38.60;25.00
51029;DHT22;37054;52.054;8.600;2022-08-03T16:28:15;38.60;25.10
51029;DHT22;37054;52.054;8.600;2022-08-03T16:30:41;38.50;25.10
51029;DHT22;37054;52.054;8.600;2022-08-03T16:33:07;38.50;25.30
51029;DHT22;37054;52.054;8.600;2022-08-03T16:38:24;38.50;25.40
51029;DHT22;37054;52.054;8.600;2022-08-03T16:40:53;38.50;25.50
51029;DHT22;37054;52.054;8.600;2022-08-03T16:43:19;38.50;25.50
51029;DHT22;37054;52.054;8.600;2022-08-03T16:45:49;38.50;25.60
51029;DHT22;37054;52.054;8.600;2022-08-03T16:48:21;38.50;25.60
51029;DHT22;37054;52.054;8.600;2022-08-03T16:50:47;38.50;25.50
51029;DHT22;37054;52.054;8.600;2022-08-03T16:53:13;38.50;25.50
51029;DHT22;37054;52.054;8.600;2022-08-03T16:55:59;38.50;25.50
51029;DHT22;37054;52.054;8.600;2022-08-03T16:58:27;38.50;25.50
51029;DHT22;37054;52.054;8.600;2022-08-03T17:00:56;38.50;25.60
51029;DHT22;37054;52.054;8.600;2022-08-03T17:03:22;38.40;25.60
51029;DHT22;37054;52.054;8.600;2022-08-03T17:05:48;38.30;25.50
51029;DHT22;37054;52.054;8.600;2022-08-03T17:08:14;38.30;25.50
51029;DHT22;37054;52.054;8.600;2022-08-03T17:10:41;38.20;25.50
51029;DHT22;37054;52.054;8.600;2022-08-03T17:13:09;38.20;25.60
51029;DHT22;37054;52.054;8.600;2022-08-03T17:15:35;38.00;25.60
51029;DHT22;37054;52.054;8.600;2022-08-03T17:18:07;38.00;25.70
51029;DHT22;37054;52.054;8.600;2022-08-03T17:20:34;37.80;25.70
51029;DHT22;37054;52.054;8.600;2022-08-03T17:23:10;37.70;25.80